Aérodrome :
LOGIN :

S'inscrire | Disclaimer

   EN    FR    IT 

 










Légende :    VFR   VFR Marginal   IFR   IFR Intensif   IFR Très Intensif
Visi : 
Plafond : 
>= 8 km
>= 3000ft
5 à 8 km
1000 à 3000 ft
1500m à 5 km
500 à 1000 ft
800 à 1500m
200 à 500 ft
< 800m
< 200 ft
Symboles :   Orages  Brouillard  Fortes neiges  Fortes précipitations  Vent > 20 kt
SIGMETs :   Divers  Orages  Givrage  Turbulence  Onde Orograph.  Cendres Volcan.







- Altitude de l'aérodrome : 65 ft
- Code IATA : PMO


LICJ - Palermo Punta Raisi

DERNIER METAR :
  • 160350Z 28020KT 9999 BKN030 24/17 Q1005

METARs EXPIRÉS :
  • 160320Z 28022KT 9999 SCT030 24/17 Q1005
  • 160250Z 28020KT 9999 FEW030 24/17 Q1005
  • 160220Z 28022KT 9999 FEW030 25/18 Q1005
  • 160150Z 28023KT CAVOK 25/19 Q1006
  • 160120Z 27023KT 9999 FEW030 25/18 Q1005
  • 160050Z 27025KT 9999 FEW030 25/17 Q1005

TAF TAF LICJ
Valide du 16 à 00h jusqu'au 17 à 00h UTC


152300Z 1600/1624 28010KT 9999 SCT020
BECMG 1608/1610 34013KT
TEMPO 1606/1610 SHRA
TEMPO 1618/1624 RA
Pas de NOTAMs connus pour ce terrain.
1 SIGMET publié pour la FIR Roma (LIRR) :
 
Orages noyés dans la masse
LIRR SIGMET 1 VALID 160220/160430 LIIB
LIRR ROMA FIR EMBD TS FCST WI N4034 E01528 - N4122 E01252 - N4125 E01119 - N3955 E01122 - N3628 E01627 - N3629 E01857 - N3752 E01758 - N3854 E01712 - N3858 E01643 - N3912 E01616 - N4034 E01528 TOP ABV FL300 STNR NC=



MET'MAP, la Météo Aéronautique d'un coup d'oeil ! - Copyright ORBIFLY Décembre 2007 - Disclaimer

ORBIFLY MET'MAP TEAM :

Programmation & Développement : Alexandra Zaïnal
Conception & Développement : Baudouin d'Aumeries
Co-Programmation & Développement : Marc-Olivier Méhu
Soutien technique & logistique : Manuel Goepfert

Contact : metmap@orbifly.com




SOURCES & CREDITS :

   NOAA